Time;durP1;ratioP1;P1;durP2;ratioP2;P2;SDS_P1;SDS_P2;PMS_P1;PMS_P2;Temp;Humidity;BMP_temperature;BMP_pressure;BME280_temperature;BME280_humidity;BME280_pressure;Samples;Min_cycle;Max_cycle;Signal;HPM_P1;HPM_P2
2023/01/31 00:01:22;;;;;;;1.90;1.25;;;6.40;77.10;;;;;;5050121;28;20028;-65
2023/01/31 00:03:56;;;;;;;4.30;1.40;;;6.40;77.10;;;;;;5052218;28;20047;-65
2023/01/31 00:06:27;;;;;;;1.75;0.93;;;6.40;77.20;;;;;;5056678;28;20044;-62
2023/01/31 00:08:54;;;;;;;9.40;1.58;;;6.30;77.10;;;;;;5055978;28;20016;-65
2023/01/31 00:11:22;;;;;;;5.63;1.25;;;6.30;77.30;;;;;;5045378;28;20116;-65
2023/01/31 00:13:49;;;;;;;8.32;2.08;;;6.30;77.30;;;;;;5051352;28;20025;-65
2023/01/31 00:16:16;;;;;;;6.20;1.00;;;6.30;77.30;;;;;;5050863;28;20458;-64
2023/01/31 00:18:42;;;;;;;3.38;1.17;;;6.30;77.10;;;;;;5042273;28;20033;-61
2023/01/31 00:21:17;;;;;;;7.10;1.48;;;6.30;77.10;;;;;;5048150;28;20348;-64
2023/01/31 00:23:44;;;;;;;5.22;1.40;;;6.30;76.90;;;;;;5059543;28;20383;-62
2023/01/31 00:26:16;;;;;;;1.92;1.27;;;6.30;76.90;;;;;;5049719;28;20025;-60
2023/01/31 00:28:43;;;;;;;8.85;1.90;;;6.30;76.90;;;;;;5040034;28;20032;-65
2023/01/31 00:31:09;;;;;;;3.95;1.67;;;6.30;76.90;;;;;;5047466;28;20035;-63
2023/01/31 00:33:36;;;;;;;6.10;1.90;;;6.30;76.90;;;;;;5052330;28;20455;-62
2023/01/31 00:36:13;;;;;;;7.25;1.92;;;6.30;77.20;;;;;;5050222;28;20032;-66
2023/01/31 00:38:41;;;;;;;4.13;1.73;;;6.30;77.10;;;;;;5047102;28;20057;-65
2023/01/31 00:41:07;;;;;;;2.60;1.02;;;6.30;77.20;;;;;;5044252;28;20037;-62
2023/01/31 00:43:33;;;;;;;4.70;0.98;;;6.20;77.10;;;;;;5041385;28;20033;-62
2023/01/31 00:45:59;;;;;;;3.55;1.80;;;6.20;77.10;;;;;;5047364;28;20025;-62
2023/01/31 00:48:25;;;;;;;3.72;1.77;;;6.20;77.80;;;;;;5047574;28;20071;-65
2023/01/31 00:50:51;;;;;;;3.85;1.58;;;6.20;77.20;;;;;;5046250;28;20024;-65
2023/01/31 00:53:22;;;;;;;3.83;1.60;;;6.20;77.10;;;;;;5038358;28;20535;-65
2023/01/31 00:56:08;;;;;;;4.75;1.40;;;6.10;77.10;;;;;;5049323;28;20025;-65
2023/01/31 00:58:34;;;;;;;1.42;0.88;;;6.10;77.10;;;;;;5055082;28;20041;-65
2023/01/31 01:01:08;;;;;;;9.35;1.35;;;6.00;77.30;;;;;;5055344;28;20503;-65
2023/01/31 01:03:34;;;;;;;7.45;1.95;;;6.00;77.40;;;;;;5045823;28;20555;-62
2023/01/31 01:06:00;;;;;;;5.10;1.05;;;5.90;77.50;;;;;;5044294;28;20413;-65
2023/01/31 01:08:28;;;;;;;6.45;2.17;;;5.90;77.60;;;;;;5052070;28;20043;-65
2023/01/31 01:10:53;;;;;;;3.42;1.38;;;5.80;77.60;;;;;;5052036;28;20158;-65
2023/01/31 01:13:19;;;;;;;3.45;1.55;;;5.80;77.60;;;;;;5048675;28;20120;-65
2023/01/31 01:15:45;;;;;;;8.82;2.30;;;5.80;77.60;;;;;;5054113;28;20103;-61
2023/01/31 01:18:10;;;;;;;1.95;1.10;;;5.80;77.60;;;;;;5044705;28;20044;-61
2023/01/31 01:20:36;;;;;;;10.90;2.10;;;5.80;77.60;;;;;;5034519;28;20037;-61
2023/01/31 01:23:02;;;;;;;5.28;2.22;;;5.70;77.60;;;;;;5048370;28;20154;-61
2023/01/31 01:25:28;;;;;;;7.15;1.80;;;5.70;77.80;;;;;;5044405;28;20025;-61
2023/01/31 01:27:53;;;;;;;3.88;1.73;;;5.70;77.90;;;;;;5046900;28;20051;-61
2023/01/31 01:30:20;;;;;;;14.60;2.15;;;5.60;77.90;;;;;;5043288;28;20040;-61
2023/01/31 01:32:46;;;;;;;5.05;1.65;;;5.60;78.10;;;;;;5047702;28;20029;-61
2023/01/31 01:35:11;;;;;;;4.57;1.77;;;5.60;78.20;;;;;;5041716;28;20041;-61
2023/01/31 01:37:37;;;;;;;4.70;2.15;;;5.50;78.30;;;;;;5054886;28;20483;-62
2023/01/31 01:40:03;;;;;;;5.60;1.95;;;5.50;78.50;;;;;;5047110;28;20051;-61
2023/01/31 01:42:34;;;;;;;1.67;1.27;;;5.50;78.50;;;;;;5044008;28;20238;-62
2023/01/31 01:45:02;;;;;;;7.28;2.10;;;5.50;78.60;;;;;;5041115;28;20509;-62
2023/01/31 01:47:49;;;;;;;5.82;1.88;;;5.40;78.70;;;;;;5077867;28;20029;-65
2023/01/31 01:50:39;;;;;;;5.90;2.28;;;5.50;78.70;;;;;;5045053;28;20464;-65
2023/01/31 01:53:13;;;;;;;5.70;1.92;;;5.50;78.80;;;;;;5050132;28;20267;-65
2023/01/31 01:55:43;;;;;;;3.17;1.63;;;5.40;78.90;;;;;;5047789;28;20029;-62
2023/01/31 01:58:35;;;;;;;8.40;2.55;;;5.40;79.10;;;;;;5051653;28;20035;-62
2023/01/31 02:01:04;;;;;;;9.80;1.88;;;5.40;79.10;;;;;;5051295;28;20063;-61
2023/01/31 02:03:30;;;;;;;4.18;1.25;;;5.40;79.10;;;;;;5047635;28;20066;-62
2023/01/31 02:06:00;;;;;;;4.57;1.63;;;5.40;79.10;;;;;;5043662;28;20048;-62
2023/01/31 02:08:30;;;;;;;12.43;2.05;;;5.40;79.10;;;;;;5046053;28;20055;-61
2023/01/31 02:11:22;;;;;;;7.97;2.22;;;5.30;79.10;;;;;;5045535;28;20044;-61
2023/01/31 02:13:55;;;;;;;5.40;2.03;;;5.30;79.30;;;;;;5045933;28;20049;-61
2023/01/31 02:16:20;;;;;;;5.88;1.30;;;5.30;79.30;;;;;;5047787;28;20063;-61
2023/01/31 02:18:47;;;;;;;6.28;1.58;;;5.30;79.20;;;;;;5050011;28;20063;-65
2023/01/31 02:21:44;;;;;;;1.60;1.00;;;5.30;79.10;;;;;;5050587;28;20068;-65
2023/01/31 02:24:27;;;;;;;4.53;2.00;;;5.30;79.10;;;;;;5048940;28;20439;-65
2023/01/31 02:27:17;;;;;;;2.15;1.17;;;5.40;79.20;;;;;;5065836;28;20025;-61
2023/01/31 02:29:49;;;;;;;4.85;1.85;;;5.40;79.30;;;;;;5039032;28;20035;-65
2023/01/31 02:32:49;;;;;;;8.20;1.52;;;5.40;79.10;;;;;;5055329;28;20529;-65
2023/01/31 02:35:29;;;;;;;7.63;1.70;;;5.40;79.10;;;;;;5046294;28;20368;-61
2023/01/31 02:38:08;;;;;;;4.63;2.10;;;5.40;79.30;;;;;;5057275;28;20024;-61
2023/01/31 02:40:54;;;;;;;5.63;1.92;;;5.30;79.40;;;;;;5045498;28;20035;-62
2023/01/31 02:46:38;;;;;;;1.70;1.20;;;5.40;79.30;;;;;;5047786;28;20035;-61
2023/01/31 02:49:10;;;;;;;2.63;1.33;;;5.30;79.40;;;;;;5048860;28;20028;-62
2023/01/31 02:52:14;;;;;;;2.30;1.90;;;5.40;79.60;;;;;;5037397;28;20551;-61
2023/01/31 02:56:13;;;;;;;12.07;2.35;;;5.40;79.70;;;;;;5041174;28;20035;-65
2023/01/31 02:57:14;;;;;;;5.30;1.67;;;5.40;79.80;;;;;;5044345;28;20056;-62
2023/01/31 02:59:42;;;;;;;5.25;2.10;;;5.50;79.80;;;;;;5041447;28;20514;-62
2023/01/31 03:02:08;;;;;;;13.07;1.60;;;5.50;79.80;;;;;;5051882;28;20032;-62
2023/01/31 03:04:40;;;;;;;6.45;2.22;;;5.50;79.80;;;;;;5052060;28;20423;-65
2023/01/31 03:07:21;;;;;;;3.95;1.60;;;5.50;79.90;;;;;;5049105;28;20053;-65
2023/01/31 03:09:57;;;;;;;3.05;2.13;;;5.50;79.80;;;;;;5058841;28;20066;-61
2023/01/31 03:12:51;;;;;;;1.60;1.20;;;5.60;79.80;;;;;;5046000;28;20029;-61
2023/01/31 03:18:28;;;;;;;1.08;0.77;;;5.60;79.90;;;;;;5038080;28;20595;-62
2023/01/31 03:21:14;;;;;;;7.18;1.30;;;5.60;80.00;;;;;;5044892;28;20060;-62
2023/01/31 03:23:44;;;;;;;5.68;2.55;;;5.60;80.00;;;;;;5044049;28;20516;-64
2023/01/31 03:26:10;;;;;;;2.55;1.63;;;5.60;80.30;;;;;;5047751;28;20025;-64
2023/01/31 03:28:41;;;;;;;5.93;1.38;;;5.60;80.40;;;;;;5042997;28;20029;-65
2023/01/31 03:31:13;;;;;;;7.45;2.80;;;5.50;80.40;;;;;;5047636;28;20032;-65
2023/01/31 03:33:43;;;;;;;14.93;1.42;;;5.50;80.50;;;;;;5055185;28;20024;-65
2023/01/31 03:36:28;;;;;;;3.55;1.83;;;5.60;80.60;;;;;;5036924;28;20559;-65
2023/01/31 03:39:04;;;;;;;6.45;1.48;;;5.60;80.50;;;;;;5045360;28;20068;-62
2023/01/31 03:41:42;;;;;;;7.32;2.20;;;5.60;80.70;;;;;;5049789;28;20022;-62
2023/01/31 03:44:18;;;;;;;7.97;2.47;;;5.60;80.90;;;;;;5060911;28;20018;-62
2023/01/31 03:46:49;;;;;;;3.80;1.70;;;5.70;81.00;;;;;;5043742;28;20036;-62
2023/01/31 03:49:16;;;;;;;9.73;2.28;;;5.60;81.00;;;;;;5045357;28;20033;-61
2023/01/31 03:51:47;;;;;;;11.10;2.08;;;5.70;81.10;;;;;;5032320;28;20063;-62
2023/01/31 03:54:21;;;;;;;5.93;2.40;;;5.70;81.50;;;;;;5048932;28;20025;-63
2023/01/31 03:57:00;;;;;;;2.80;1.85;;;5.70;81.60;;;;;;5047886;28;21499;-63
2023/01/31 03:59:31;;;;;;;4.05;2.15;;;5.80;81.60;;;;;;5042928;28;20124;-62
2023/01/31 04:02:00;;;;;;;3.25;1.98;;;5.80;81.90;;;;;;5051138;28;20020;-62
2023/01/31 04:04:39;;;;;;;7.82;2.20;;;5.80;81.90;;;;;;5042121;28;20585;-62
2023/01/31 04:07:05;;;;;;;4.70;2.08;;;5.90;81.80;;;;;;5050243;28;20056;-62
2023/01/31 04:09:32;;;;;;;4.95;2.30;;;5.90;81.80;;;;;;5061003;28;20036;-62
2023/01/31 04:12:01;;;;;;;11.25;2.35;;;5.90;81.90;;;;;;5042282;28;20056;-60
2023/01/31 04:14:28;;;;;;;9.68;2.67;;;5.90;81.80;;;;;;5059677;28;20121;-60
2023/01/31 04:16:54;;;;;;;3.92;1.67;;;5.90;82.00;;;;;;5070159;28;20025;-62
2023/01/31 04:19:19;;;;;;;5.43;2.20;;;5.90;81.90;;;;;;5041904;28;20035;-61
2023/01/31 04:21:45;;;;;;;9.80;3.20;;;6.00;82.00;;;;;;5036190;28;20033;-61
2023/01/31 04:24:11;;;;;;;7.07;2.70;;;6.00;82.20;;;;;;5072349;28;20690;-64
2023/01/31 04:26:36;;;;;;;6.97;2.85;;;6.00;82.10;;;;;;5046605;28;20547;-64
2023/01/31 04:29:03;;;;;;;2.78;2.05;;;6.00;82.20;;;;;;5042656;28;20033;-65
2023/01/31 04:31:29;;;;;;;6.40;2.67;;;6.00;82.20;;;;;;5045310;28;20033;-64
2023/01/31 04:33:56;;;;;;;5.18;2.70;;;6.00;82.30;;;;;;5034188;28;20025;-64
2023/01/31 04:36:23;;;;;;;7.80;3.03;;;6.00;82.20;;;;;;5035322;28;20041;-65
2023/01/31 04:38:49;;;;;;;4.78;1.70;;;6.00;82.30;;;;;;5049831;28;20120;-61
2023/01/31 04:41:15;;;;;;;4.93;2.40;;;6.00;82.30;;;;;;5048417;28;20109;-61
2023/01/31 04:43:40;;;;;;;4.40;2.67;;;6.00;82.50;;;;;;5037263;28;20041;-62
2023/01/31 04:46:06;;;;;;;14.15;3.60;;;6.00;82.60;;;;;;5046582;28;20143;-61
2023/01/31 04:48:32;;;;;;;5.53;2.45;;;6.00;82.70;;;;;;5048059;28;20029;-61
2023/01/31 04:50:58;;;;;;;16.33;3.90;;;6.00;82.80;;;;;;5042879;28;20479;-61
2023/01/31 04:53:23;;;;;;;7.40;2.83;;;6.00;82.90;;;;;;5053553;28;20468;-64
2023/01/31 04:55:53;;;;;;;7.68;3.28;;;6.00;83.30;;;;;;5050589;28;20366;-65
2023/01/31 04:58:19;;;;;;;10.77;4.53;;;6.00;83.40;;;;;;5047356;28;20056;-65
2023/01/31 05:00:45;;;;;;;18.63;4.47;;;6.00;83.40;;;;;;5049533;28;20028;-65
2023/01/31 05:03:11;;;;;;;17.00;4.97;;;6.00;83.50;;;;;;5047755;28;20029;-65
2023/01/31 05:05:37;;;;;;;7.75;3.95;;;6.00;83.80;;;;;;5047971;28;20116;-65
2023/01/31 05:08:03;;;;;;;14.32;6.45;;;6.00;83.80;;;;;;5052251;28;20059;-65
2023/01/31 05:10:29;;;;;;;17.23;9.30;;;6.00;83.70;;;;;;5035314;28;20040;-65
2023/01/31 05:12:54;;;;;;;15.95;7.88;;;6.10;83.70;;;;;;5049549;28;20029;-65
2023/01/31 05:15:20;;;;;;;7.45;4.63;;;6.10;83.90;;;;;;5047236;28;20492;-62
2023/01/31 05:18:01;;;;;;;8.05;4.10;;;6.10;84.10;;;;;;5046862;28;20025;-62
2023/01/31 05:20:33;;;;;;;11.57;5.47;;;6.10;84.10;;;;;;5037698;28;20032;-61
2023/01/31 05:22:59;;;;;;;7.85;5.85;;;6.10;84.20;;;;;;5043750;28;20027;-61
2023/01/31 05:25:25;;;;;;;10.90;5.18;;;6.00;84.40;;;;;;5038086;28;20148;-62
2023/01/31 05:27:52;;;;;;;14.43;5.28;;;6.00;84.40;;;;;;5042738;28;20087;-65
2023/01/31 05:30:23;;;;;;;13.45;5.13;;;6.10;84.60;;;;;;5046303;28;20041;-62
2023/01/31 05:32:49;;;;;;;13.20;6.35;;;6.10;84.50;;;;;;5047115;28;20041;-62
2023/01/31 05:35:15;;;;;;;24.13;11.77;;;6.10;84.50;;;;;;5050363;28;20067;-62
2023/01/31 05:37:41;;;;;;;32.15;24.25;;;6.10;84.50;;;;;;5049703;28;20031;-61
2023/01/31 05:40:11;;;;;;;55.90;33.53;;;6.10;84.60;;;;;;5044189;28;20036;-65
2023/01/31 05:42:37;;;;;;;91.82;46.90;;;6.10;84.70;;;;;;5054263;28;20021;-65
2023/01/31 05:45:04;;;;;;;100.80;55.75;;;6.10;84.70;;;;;;5049814;28;20333;-64
2023/01/31 05:47:30;;;;;;;145.70;76.68;;;6.10;84.70;;;;;;5051924;28;20025;-64
2023/01/31 05:49:56;;;;;;;140.23;71.28;;;6.10;84.90;;;;;;5050944;28;20355;-64
2023/01/31 05:52:21;;;;;;;105.88;57.58;;;6.10;84.90;;;;;;5048928;28;20033;-64
2023/01/31 05:54:47;;;;;;;81.25;37.88;;;6.10;84.90;;;;;;5048980;28;20060;-66
2023/01/31 05:57:15;;;;;;;52.92;25.02;;;6.10;84.90;;;;;;5049123;28;20078;-61
2023/01/31 05:59:41;;;;;;;35.83;17.45;;;6.10;85.00;;;;;;5049239;28;20429;-62
2023/01/31 06:02:10;;;;;;;29.80;13.00;;;6.10;84.90;;;;;;5051148;28;20079;-62
2023/01/31 06:04:36;;;;;;;22.92;12.48;;;6.20;85.00;;;;;;5049155;28;20640;-62
2023/01/31 06:07:02;;;;;;;28.80;12.15;;;6.20;84.80;;;;;;5049452;28;20534;-62
2023/01/31 06:09:27;;;;;;;34.63;16.73;;;6.20;84.90;;;;;;5051872;28;20052;-62
2023/01/31 06:11:53;;;;;;;39.35;18.48;;;6.20;85.40;;;;;;5048419;28;20032;-61
2023/01/31 06:14:19;;;;;;;57.22;21.65;;;6.30;84.90;;;;;;5048872;28;20029;-65
2023/01/31 06:16:44;;;;;;;47.45;21.27;;;6.20;84.80;;;;;;5063461;28;20037;-61
2023/01/31 06:19:10;;;;;;;42.40;21.75;;;6.30;84.90;;;;;;5047304;28;20040;-61
2023/01/31 06:21:36;;;;;;;39.28;19.90;;;6.30;85.20;;;;;;5043227;28;20082;-61
2023/01/31 06:24:01;;;;;;;30.60;17.40;;;6.30;85.20;;;;;;5052491;28;20100;-65
2023/01/31 06:26:27;;;;;;;31.45;18.13;;;6.30;85.20;;;;;;5056378;28;20031;-64
2023/01/31 06:28:54;;;;;;;37.17;17.48;;;6.30;85.00;;;;;;5049941;28;20029;-66
2023/01/31 06:31:20;;;;;;;31.50;16.70;;;6.40;85.10;;;;;;5054863;28;20028;-65
2023/01/31 06:33:46;;;;;;;34.80;14.48;;;6.40;85.40;;;;;;5054993;28;20746;-65
2023/01/31 06:36:11;;;;;;;31.02;14.13;;;6.40;85.30;;;;;;5050717;28;20037;-64
2023/01/31 06:38:37;;;;;;;24.35;11.43;;;6.40;85.30;;;;;;5048154;28;20402;-61
2023/01/31 06:41:03;;;;;;;21.45;12.40;;;6.40;85.20;;;;;;5058892;28;20483;-61
2023/01/31 06:43:28;;;;;;;27.17;12.63;;;6.40;85.30;;;;;;5053086;28;20510;-65
2023/01/31 06:45:54;;;;;;;22.52;12.43;;;6.40;85.30;;;;;;5058008;28;20032;-65
2023/01/31 06:48:20;;;;;;;34.83;11.20;;;6.40;85.30;;;;;;5050866;28;20020;-64
2023/01/31 06:50:46;;;;;;;18.13;11.45;;;6.50;85.20;;;;;;5056796;28;20048;-64
2023/01/31 06:53:11;;;;;;;25.88;11.30;;;6.50;85.20;;;;;;5048951;28;20476;-64
2023/01/31 06:55:38;;;;;;;19.13;9.65;;;6.50;85.70;;;;;;5056651;28;20171;-65
2023/01/31 06:58:03;;;;;;;36.08;11.30;;;6.50;85.10;;;;;;5051460;28;20035;-64
2023/01/31 07:00:29;;;;;;;23.73;9.85;;;6.50;85.20;;;;;;5037212;28;20045;-64
2023/01/31 07:02:55;;;;;;;20.75;8.10;;;6.50;85.10;;;;;;5041336;28;20014;-64
2023/01/31 07:05:22;;;;;;;16.50;7.95;;;6.50;85.00;;;;;;5048023;28;20526;-64
2023/01/31 07:07:48;;;;;;;16.67;8.10;;;6.60;85.00;;;;;;5052913;28;20028;-64
2023/01/31 07:10:15;;;;;;;19.23;8.73;;;6.60;85.00;;;;;;5055174;28;20033;-64
2023/01/31 07:12:41;;;;;;;13.90;7.03;;;6.60;85.00;;;;;;5050964;28;20079;-61
2023/01/31 07:15:08;;;;;;;11.00;5.75;;;6.60;84.90;;;;;;5042487;28;20037;-62
2023/01/31 07:17:33;;;;;;;13.93;6.32;;;6.60;84.80;;;;;;5051747;28;20041;-61
2023/01/31 07:19:59;;;;;;;16.67;6.53;;;6.60;84.80;;;;;;5042165;28;20041;-63
2023/01/31 07:22:25;;;;;;;17.00;7.03;;;6.60;84.70;;;;;;5047196;28;20032;-62
2023/01/31 07:24:50;;;;;;;10.68;5.40;;;6.60;84.80;;;;;;5055713;28;20024;-62
2023/01/31 07:27:17;;;;;;;15.73;5.15;;;6.60;84.80;;;;;;5051199;28;20074;-62
2023/01/31 07:29:42;;;;;;;17.30;5.25;;;6.60;84.80;;;;;;5037110;28;20027;-62
2023/01/31 07:32:09;;;;;;;17.02;4.60;;;6.60;84.80;;;;;;5060412;28;20037;-62
2023/01/31 07:34:35;;;;;;;16.58;5.28;;;6.60;84.80;;;;;;5049561;28;20370;-61
2023/01/31 07:37:01;;;;;;;11.85;4.53;;;6.60;84.70;;;;;;5049176;28;20029;-61
2023/01/31 07:39:28;;;;;;;10.57;4.53;;;6.60;84.70;;;;;;5042472;28;20037;-61
2023/01/31 07:41:54;;;;;;;7.28;3.55;;;6.70;85.20;;;;;;5051244;28;20032;-62
2023/01/31 07:44:19;;;;;;;7.45;4.05;;;6.70;84.60;;;;;;5041753;28;20029;-63
2023/01/31 07:46:45;;;;;;;6.72;3.58;;;6.70;84.60;;;;;;5045605;28;20045;-69
2023/01/31 07:49:11;;;;;;;4.75;3.22;;;6.70;84.50;;;;;;5040921;28;20131;-70
2023/01/31 07:51:37;;;;;;;15.48;4.57;;;6.70;84.40;;;;;;5042212;28;20022;-69
2023/01/31 07:54:04;;;;;;;15.65;5.25;;;6.70;84.40;;;;;;5038829;28;21065;-69
2023/01/31 07:56:30;;;;;;;7.45;4.15;;;6.70;84.40;;;;;;5035529;28;20043;-70
2023/01/31 07:58:57;;;;;;;16.27;4.00;;;6.70;84.50;;;;;;5039621;28;20033;-70
2023/01/31 08:04:11;;;;;;;10.88;4.45;;;6.70;84.50;;;;;;5045038;28;20401;-70
2023/01/31 08:06:39;;;;;;;9.23;4.40;;;6.60;84.40;;;;;;5034048;28;20048;-70
2023/01/31 08:09:05;;;;;;;9.00;4.13;;;6.70;84.30;;;;;;5035254;28;20071;-70
2023/01/31 08:11:30;;;;;;;11.07;4.40;;;6.70;84.20;;;;;;5043269;28;20067;-71
2023/01/31 08:13:56;;;;;;;12.88;4.43;;;6.70;84.10;;;;;;5041927;28;20083;-67
2023/01/31 08:16:22;;;;;;;9.52;4.28;;;6.80;83.90;;;;;;5037783;28;20037;-69
2023/01/31 08:18:48;;;;;;;14.60;5.30;;;6.80;83.60;;;;;;5035596;28;20047;-70
2023/01/31 08:21:15;;;;;;;9.52;3.85;;;6.80;83.60;;;;;;5039349;28;20082;-69
2023/01/31 08:23:41;;;;;;;16.05;7.70;;;6.80;83.50;;;;;;5034567;28;20037;-67
2023/01/31 08:26:10;;;;;;;19.58;6.55;;;6.70;83.40;;;;;;5034949;28;20029;-69
2023/01/31 08:28:37;;;;;;;20.27;6.95;;;6.70;83.40;;;;;;5041472;28;20566;-69
2023/01/31 08:31:04;;;;;;;10.80;4.82;;;6.70;83.50;;;;;;5059933;28;20041;-63
2023/01/31 08:33:29;;;;;;;8.00;4.47;;;6.70;83.40;;;;;;5050640;28;20028;-70
2023/01/31 08:35:55;;;;;;;10.18;3.47;;;6.70;83.30;;;;;;5043664;28;20392;-70
2023/01/31 08:38:21;;;;;;;9.73;4.57;;;6.70;83.30;;;;;;5040653;28;20068;-69
2023/01/31 08:40:47;;;;;;;8.18;3.50;;;6.70;83.30;;;;;;5046990;28;20614;-63
2023/01/31 08:43:13;;;;;;;10.02;4.32;;;6.70;83.20;;;;;;5040117;28;20056;-61
2023/01/31 08:45:39;;;;;;;10.43;3.72;;;6.70;83.20;;;;;;5039000;28;20048;-62
2023/01/31 08:48:05;;;;;;;12.98;4.78;;;6.80;83.20;;;;;;5037654;28;20025;-62
2023/01/31 08:50:31;;;;;;;11.52;5.07;;;6.80;83.10;;;;;;5036792;28;20029;-65
2023/01/31 08:52:59;;;;;;;7.78;3.33;;;6.80;83.00;;;;;;5040224;28;20021;-64
2023/01/31 08:55:26;;;;;;;8.25;4.03;;;6.90;83.00;;;;;;5038524;28;20021;-65
2023/01/31 08:57:53;;;;;;;20.45;4.88;;;6.80;83.00;;;;;;5040086;28;20506;-65
2023/01/31 09:00:20;;;;;;;16.63;4.88;;;6.80;82.90;;;;;;5041315;28;20044;-65
2023/01/31 09:02:57;;;;;;;9.80;4.95;;;6.90;83.00;;;;;;5046210;28;20057;-65
2023/01/31 09:05:24;;;;;;;14.68;4.35;;;6.90;82.80;;;;;;5042549;28;20041;-64
2023/01/31 09:07:50;;;;;;;8.30;3.38;;;7.00;82.80;;;;;;5043170;28;20033;-65
2023/01/31 09:10:17;;;;;;;14.23;3.50;;;7.00;82.70;;;;;;5043650;28;20059;-65
2023/01/31 09:12:43;;;;;;;7.50;3.25;;;7.00;82.70;;;;;;5042669;28;20040;-65
2023/01/31 09:15:10;;;;;;;5.32;3.55;;;7.00;82.60;;;;;;5038759;28;20043;-66
2023/01/31 09:17:35;;;;;;;9.13;4.10;;;7.00;82.60;;;;;;5042105;28;20033;-68
2023/01/31 09:20:05;;;;;;;11.63;4.25;;;7.00;82.50;;;;;;5033538;28;20575;-66
2023/01/31 09:22:35;;;;;;;12.88;4.53;;;7.00;82.40;;;;;;5034795;28;20464;-66
2023/01/31 09:25:01;;;;;;;13.05;4.43;;;7.00;82.50;;;;;;5036127;28;20044;-66
2023/01/31 09:27:27;;;;;;;9.52;4.80;;;7.00;82.60;;;;;;5041014;28;20131;-66
2023/01/31 09:29:53;;;;;;;8.73;4.72;;;7.00;82.70;;;;;;5049397;28;20025;-63
2023/01/31 09:32:20;;;;;;;10.18;5.10;;;7.00;82.70;;;;;;5049285;28;20039;-63
2023/01/31 09:34:47;;;;;;;17.60;5.57;;;7.00;82.50;;;;;;5043820;28;20029;-63
2023/01/31 09:37:14;;;;;;;10.57;3.88;;;7.10;82.60;;;;;;5044556;28;20041;-63
2023/01/31 09:39:40;;;;;;;7.55;4.80;;;7.10;82.60;;;;;;5038388;28;20031;-63
2023/01/31 09:42:28;;;;;;;8.88;5.00;;;7.10;82.50;;;;;;5039164;28;20041;-63
2023/01/31 09:44:57;;;;;;;18.98;5.57;;;7.10;82.30;;;;;;5035411;28;20032;-64
2023/01/31 09:47:48;;;;;;;9.77;5.00;;;7.10;82.50;;;;;;5032138;28;20072;-63
2023/01/31 09:50:26;;;;;;;8.73;3.22;;;7.10;82.60;;;;;;5034117;28;20404;-66
2023/01/31 09:52:52;;;;;;;14.55;5.68;;;7.10;82.60;;;;;;5035800;28;20408;-66
2023/01/31 09:55:28;;;;;;;14.25;3.83;;;7.10;82.60;;;;;;5035925;28;20029;-63
2023/01/31 09:58:15;;;;;;;10.48;4.35;;;7.20;82.70;;;;;;5030693;28;20037;-63
2023/01/31 10:01:01;;;;;;;16.80;4.00;;;7.20;82.60;;;;;;5037557;28;20089;-67
2023/01/31 10:03:30;;;;;;;8.25;4.25;;;7.20;82.80;;;;;;5038132;28;20045;-67
2023/01/31 10:06:41;;;;;;;13.05;4.97;;;7.20;82.80;;;;;;5043557;28;20564;-64
2023/01/31 10:09:24;;;;;;;9.27;4.78;;;7.30;82.70;;;;;;5008254;28;20038;-67
2023/01/31 10:12:10;;;;;;;8.75;4.47;;;7.30;83.10;;;;;;5034695;28;20377;-64
2023/01/31 10:14:39;;;;;;;12.55;3.97;;;7.30;82.80;;;;;;5034865;28;20052;-63
2023/01/31 10:17:15;;;;;;;13.45;5.93;;;7.30;83.00;;;;;;5033572;28;20562;-67
2023/01/31 10:19:54;;;;;;;8.27;4.22;;;7.30;83.10;;;;;;5042926;28;20390;-67
2023/01/31 10:22:37;;;;;;;8.95;4.28;;;7.40;83.00;;;;;;5045202;28;20033;-67
2023/01/31 10:25:21;;;;;;;10.80;4.43;;;7.50;82.90;;;;;;5042106;28;20028;-67
2023/01/31 10:27:56;;;;;;;13.15;4.15;;;7.50;82.80;;;;;;5030510;28;20352;-67
2023/01/31 10:30:27;;;;;;;10.88;4.25;;;7.60;82.80;;;;;;5043560;28;20369;-67
2023/01/31 10:33:00;;;;;;;7.13;3.42;;;7.60;82.80;;;;;;5040919;28;20377;-67
2023/01/31 10:35:48;;;;;;;12.20;4.32;;;7.70;82.60;;;;;;5039245;28;20032;-67
2023/01/31 10:38:40;;;;;;;6.13;3.15;;;7.70;82.50;;;;;;5042248;28;20044;-67
2023/01/31 10:41:27;;;;;;;5.70;3.47;;;7.80;82.60;;;;;;5034094;28;20472;-64
2023/01/31 10:44:04;;;;;;;7.88;3.47;;;7.80;82.70;;;;;;5037166;28;20361;-64
2023/01/31 10:46:30;;;;;;;9.00;3.00;;;7.80;82.70;;;;;;5038787;28;20089;-64
2023/01/31 10:48:56;;;;;;;6.82;3.40;;;7.90;82.70;;;;;;5035575;28;20061;-63
2023/01/31 10:52:03;;;;;;;11.55;3.53;;;7.90;82.70;;;;;;5039567;28;20051;-63
2023/01/31 10:54:41;;;;;;;14.75;4.72;;;7.90;82.70;;;;;;5043868;28;20025;-63
2023/01/31 10:57:07;;;;;;;9.23;4.05;;;7.90;82.80;;;;;;5036557;28;20028;-63
2023/01/31 10:59:36;;;;;;;11.95;4.45;;;7.90;82.90;;;;;;5037971;28;20033;-63
2023/01/31 11:02:03;;;;;;;7.43;3.50;;;8.00;82.90;;;;;;5045146;28;20487;-63
2023/01/31 11:04:42;;;;;;;13.50;3.83;;;8.00;83.40;;;;;;5046504;28;20487;-63
2023/01/31 11:07:09;;;;;;;4.65;2.80;;;8.10;82.80;;;;;;5047843;28;20048;-63
2023/01/31 11:09:39;;;;;;;8.63;3.63;;;8.10;82.70;;;;;;5039870;28;20480;-66
2023/01/31 11:12:06;;;;;;;6.32;2.95;;;8.20;82.60;;;;;;5048205;28;20074;-63
2023/01/31 11:14:32;;;;;;;5.38;2.78;;;8.30;82.50;;;;;;5047884;28;20484;-63
2023/01/31 11:17:01;;;;;;;7.95;2.92;;;8.30;82.50;;;;;;5038153;28;20091;-63
2023/01/31 11:19:50;;;;;;;7.55;3.35;;;8.30;82.50;;;;;;5038015;28;20334;-63
2023/01/31 11:22:21;;;;;;;10.32;3.47;;;8.30;82.50;;;;;;5046036;28;20426;-63
2023/01/31 11:24:48;;;;;;;5.10;3.22;;;8.40;82.50;;;;;;5047896;28;20017;-63
2023/01/31 11:27:25;;;;;;;4.28;3.10;;;8.40;82.70;;;;;;5048919;28;20029;-63
2023/01/31 11:29:53;;;;;;;4.85;3.13;;;8.40;82.80;;;;;;5041773;28;20028;-67
2023/01/31 11:32:25;;;;;;;5.28;2.78;;;8.30;82.80;;;;;;5043975;28;20400;-66
2023/01/31 11:35:02;;;;;;;5.45;3.58;;;8.40;83.00;;;;;;5044024;28;20119;-63
2023/01/31 11:37:28;;;;;;;4.30;3.03;;;8.40;83.00;;;;;;5047491;28;20037;-63
2023/01/31 11:39:57;;;;;;;9.82;3.08;;;8.30;83.40;;;;;;5040663;28;20037;-66
2023/01/31 11:42:23;;;;;;;9.35;3.40;;;8.30;83.50;;;;;;5032768;28;20025;-66
2023/01/31 11:45:00;;;;;;;15.23;4.25;;;8.30;83.60;;;;;;5046103;28;20041;-63
2023/01/31 11:47:45;;;;;;;7.93;3.45;;;8.40;83.60;;;;;;5043566;28;20487;-66
2023/01/31 11:50:32;;;;;;;8.80;3.40;;;8.40;83.50;;;;;;5045738;28;20040;-62
2023/01/31 11:53:01;;;;;;;7.80;3.55;;;8.40;83.60;;;;;;5049780;28;20030;-62
2023/01/31 11:55:34;;;;;;;5.47;2.90;;;8.50;83.80;;;;;;5043413;28;20029;-62
2023/01/31 11:58:04;;;;;;;10.85;3.60;;;8.50;83.80;;;;;;5044337;28;20029;-66
2023/01/31 12:00:32;;;;;;;6.72;3.28;;;8.50;84.00;;;;;;5049801;28;20491;-62
2023/01/31 12:03:14;;;;;;;10.50;3.58;;;8.50;84.20;;;;;;5042305;28;20045;-66
2023/01/31 12:05:45;;;;;;;6.82;3.42;;;8.50;84.50;;;;;;5038875;28;20051;-66
2023/01/31 12:08:34;;;;;;;8.15;2.80;;;8.50;84.90;;;;;;5031498;28;20025;-65
2023/01/31 12:11:04;;;;;;;8.63;3.25;;;8.50;84.90;;;;;;5036775;28;20091;-63
2023/01/31 12:13:29;;;;;;;6.65;2.08;;;8.50;85.30;;;;;;5060673;28;20388;-63
2023/01/31 12:16:04;;;;;;;8.93;2.75;;;8.50;85.60;;;;;;5043294;28;20021;-64
2023/01/31 12:19:07;;;;;;;8.13;2.42;;;8.50;85.80;;;;;;5036403;28;20060;-63
2023/01/31 12:21:35;;;;;;;;;;;8.50;86.00;;;;;;5049333;28;20099;-67
2023/01/31 12:24:19;;;;;;;6.35;2.95;;;8.50;86.20;;;;;;5044469;28;20018;-63
2023/01/31 12:26:58;;;;;;;2.83;2.00;;;8.50;86.60;;;;;;5040828;28;20086;-63
2023/01/31 12:29:29;;;;;;;5.25;1.88;;;8.50;86.70;;;;;;5052935;28;20464;-66
2023/01/31 12:32:13;;;;;;;3.83;2.53;;;8.50;86.70;;;;;;5046791;28;20662;-66
2023/01/31 12:35:01;;;;;;;7.65;2.35;;;8.60;87.10;;;;;;5039667;28;20537;-63
2023/01/31 12:37:45;;;;;;;3.17;2.00;;;8.60;87.60;;;;;;5043940;28;20183;-64
2023/01/31 12:40:43;;;;;;;3.20;2.10;;;8.50;87.90;;;;;;5028700;28;20032;-62
2023/01/31 12:43:41;;;;;;;2.65;1.45;;;8.50;88.00;;;;;;5052758;28;20021;-63
2023/01/31 12:46:25;;;;;;;13.48;1.70;;;8.50;88.20;;;;;;5029034;28;20037;-66
2023/01/31 12:49:28;;;;;;;5.72;2.53;;;8.50;88.30;;;;;;5043614;28;20021;-65
2023/01/31 12:52:04;;;;;;;4.95;2.38;;;8.60;88.40;;;;;;5041831;28;20404;-65
2023/01/31 12:55:18;;;;;;;3.20;1.92;;;8.50;88.50;;;;;;5051105;28;20057;-65
2023/01/31 12:57:53;;;;;;;6.97;2.17;;;8.60;88.60;;;;;;5035702;28;20041;-65
2023/01/31 13:00:45;;;;;;;5.82;1.83;;;8.60;88.70;;;;;;5043562;28;20040;-65
2023/01/31 13:03:21;;;;;;;4.28;2.00;;;8.70;88.40;;;;;;5040996;28;20057;-62
2023/01/31 13:05:54;;;;;;;3.22;1.73;;;8.70;88.30;;;;;;5054035;28;20110;-65
2023/01/31 13:08:29;;;;;;;3.13;1.40;;;8.70;88.30;;;;;;5045932;28;20030;-65
2023/01/31 13:11:18;;;;;;;4.13;1.83;;;8.70;88.30;;;;;;5041265;28;20577;-62
2023/01/31 13:13:49;;;;;;;5.25;2.67;;;8.70;88.40;;;;;;5057553;28;20044;-65
2023/01/31 13:16:27;;;;;;;3.80;1.85;;;8.70;88.80;;;;;;5053464;28;20033;-65
2023/01/31 13:18:57;;;;;;;3.70;2.45;;;8.70;88.90;;;;;;5041399;28;20037;-66
2023/01/31 13:21:28;;;;;;;10.75;3.20;;;8.70;89.00;;;;;;5046033;28;20029;-66
2023/01/31 13:24:08;;;;;;;4.90;2.20;;;8.80;89.00;;;;;;5042975;28;20036;-65